Iowa Hill, California
Current Conditions -  °F | °C
As of 6:40 PM on Tuesday 21 Oct 2014 (Local Time) from KGOO Reporting Station
Clear Clear  
Wind Chill: 54°   Ceiling: Unl
Heat Index: 54°   Visibility: 10mi
Dew Point: 41°   Wind: 5mph
Humidity: 62%   Direction: 330°NNW
Pressure: 30.06"   Gusts: NA
Location:  39.0937°N, 120.92°W
Report Text: KGOO 220140Z AUTO 33004KT 10SM CLR 12/05 A3006 RMK AO1
Loading
Personal Weather Stations






























Interactive Weather Map
Tropical Storm Tracking
New forecast layout! Learn more

10-Day Weather Forecast

Advertisements
Track Severe Weather on mobile